Time;durP1;ratioP1;P1;durP2;ratioP2;P2;SDS_P1;SDS_P2;PMS_P1;PMS_P2;Temp;Humidity;BMP_temperature;BMP_pressure;BME280_temperature;BME280_humidity;BME280_pressure;Samples;Min_cycle;Max_cycle;Signal;HPM_P1;HPM_P2
2023/07/12 00:00:20;;;;;;;6.30;4.00;;;;;;;28.99;52.43;99498.81;4895462;29;20031;-76
2023/07/12 00:02:46;;;;;;;8.07;4.10;;;;;;;29.03;52.69;99497.50;4896665;29;20032;-77
2023/07/12 00:05:11;;;;;;;8.55;4.20;;;;;;;29.06;52.67;99502.59;4896422;29;20099;-77
2023/07/12 00:07:36;;;;;;;9.35;4.20;;;;;;;28.99;52.98;99506.88;4896419;29;20031;-76
2023/07/12 00:10:02;;;;;;;7.88;3.85;;;;;;;29.01;53.08;99508.38;4896637;29;20418;-77
2023/07/12 00:12:28;;;;;;;7.55;4.38;;;;;;;29.00;52.95;99508.56;4896747;29;20405;-76
2023/07/12 00:14:53;;;;;;;8.07;4.30;;;;;;;28.99;53.04;99520.28;4896551;29;20438;-77
2023/07/12 00:17:21;;;;;;;8.45;4.28;;;;;;;28.95;53.29;99522.41;4896644;29;20112;-77
2023/07/12 00:19:47;;;;;;;8.02;4.18;;;;;;;28.97;53.01;99511.50;4896365;29;20032;-77
2023/07/12 00:22:12;;;;;;;8.88;4.00;;;;;;;28.93;53.29;99514.50;4896505;29;20479;-77
2023/07/12 00:24:37;;;;;;;7.38;4.00;;;;;;;28.96;53.50;99509.81;4896356;29;20117;-77
2023/07/12 00:27:03;;;;;;;8.50;4.60;;;;;;;29.00;53.25;99505.88;4896595;29;20469;-77
2023/07/12 00:29:28;;;;;;;7.03;4.18;;;;;;;29.03;52.94;99505.56;4896366;29;20025;-76
2023/07/12 00:31:54;;;;;;;7.45;4.28;;;;;;;28.99;52.87;99488.88;4896359;29;20111;-77
2023/07/12 00:34:19;;;;;;;8.15;4.30;;;;;;;28.97;52.96;99495.41;4882732;29;20025;-76
2023/07/12 00:36:45;;;;;;;7.57;4.03;;;;;;;28.94;53.22;99497.41;4877795;29;20594;-77
2023/07/12 00:39:12;;;;;;;6.60;3.80;;;;;;;28.94;53.18;99492.03;4878745;29;20033;-76
2023/07/12 00:42:06;;;;;;;8.18;4.28;;;;;;;28.98;52.95;99476.47;4881384;29;20025;-77
2023/07/12 00:44:56;;;;;;;9.80;4.45;;;;;;;28.99;52.94;99488.88;4899110;29;20084;-77
2023/07/12 00:47:21;;;;;;;8.00;4.03;;;;;;;28.90;53.30;99490.59;4899705;29;20036;-76
2023/07/12 00:49:47;;;;;;;7.30;3.85;;;;;;;28.91;52.99;99481.56;4899235;29;20031;-76
2023/07/12 00:52:18;;;;;;;11.07;4.43;;;;;;;28.90;53.06;99484.41;4899752;29;20678;-76
2023/07/12 00:54:47;;;;;;;8.05;3.95;;;;;;;28.90;52.90;99484.41;4899774;29;20037;-76
2023/07/12 00:57:12;;;;;;;7.78;3.78;;;;;;;28.88;53.15;99481.88;4899735;29;20088;-77
2023/07/12 00:59:38;;;;;;;7.85;4.15;;;;;;;28.87;53.23;99482.84;4899376;29;20028;-77
2023/07/12 01:02:04;;;;;;;8.10;4.00;;;;;;;28.85;53.09;99482.09;4899406;29;20033;-77
2023/07/12 01:04:35;;;;;;;7.68;4.30;;;;;;;28.91;52.74;99480.72;4899214;29;20028;-76
2023/07/12 01:07:01;;;;;;;10.30;4.50;;;;;;;28.88;52.92;99486.38;4899400;29;20028;-76
2023/07/12 01:09:27;;;;;;;8.45;4.15;;;;;;;28.82;53.22;99477.03;4899383;29;20481;-76
2023/07/12 01:11:54;;;;;;;8.43;4.10;;;;;;;28.83;53.16;99473.34;4899274;29;20033;-76
2023/07/12 01:14:20;;;;;;;9.43;4.45;;;;;;;28.83;53.24;99473.34;4899195;29;20032;-77
2023/07/12 01:16:54;;;;;;;6.32;3.70;;;;;;;28.86;53.05;99475.78;4899312;29;20037;-76
2023/07/12 01:19:19;;;;;;;8.85;4.75;;;;;;;28.78;53.27;99470.25;4898854;29;20032;-76
2023/07/12 01:21:48;;;;;;;8.00;4.40;;;;;;;28.75;53.30;99463.34;4880987;29;20029;-77
2023/07/12 01:24:15;;;;;;;8.82;4.00;;;;;;;28.75;53.18;99470.53;4880172;29;20540;-76
2023/07/12 01:26:43;;;;;;;7.68;4.20;;;;;;;28.70;53.13;99473.66;4880377;29;20104;-76
2023/07/12 01:29:09;;;;;;;8.23;4.18;;;;;;;28.67;53.44;99474.78;4880356;29;20463;-77
2023/07/12 01:31:36;;;;;;;9.95;4.70;;;;;;;28.63;53.71;99478.78;4880310;29;20029;-76
2023/07/12 01:34:02;;;;;;;7.70;4.28;;;;;;;28.72;53.56;99476.22;4879967;29;20073;-76
2023/07/12 01:36:29;;;;;;;8.95;4.38;;;;;;;28.75;53.64;99465.16;4880232;29;20033;-77
2023/07/12 01:38:56;;;;;;;8.48;4.25;;;;;;;28.75;53.05;99465.16;4880133;29;20029;-77
2023/07/12 01:41:21;;;;;;;6.93;4.30;;;;;;;28.73;52.98;99467.16;4880058;29;20029;-77
2023/07/12 01:43:48;;;;;;;8.25;4.35;;;;;;;28.70;53.51;99462.09;4880087;29;20451;-77
2023/07/12 01:46:14;;;;;;;8.50;4.35;;;;;;;28.71;53.39;99459.25;4879503;29;20053;-76
2023/07/12 01:48:40;;;;;;;7.40;3.92;;;;;;;28.67;53.69;99460.53;4885196;29;20029;-77
2023/07/12 01:51:06;;;;;;;6.43;3.90;;;;;;;28.64;53.28;99464.38;4897723;29;20029;-77
2023/07/12 01:53:33;;;;;;;8.50;4.50;;;;;;;28.66;53.54;99467.75;4898688;29;20466;-76
2023/07/12 01:55:59;;;;;;;6.20;4.20;;;;;;;28.64;53.38;99469.72;4898399;29;20033;-76
2023/07/12 01:58:25;;;;;;;8.50;4.28;;;;;;;28.60;53.45;99468.31;4898332;29;20071;-77
2023/07/12 02:00:50;;;;;;;7.60;4.30;;;;;;;28.63;53.37;99462.66;4897984;29;20060;-77
2023/07/12 02:03:16;;;;;;;6.90;3.85;;;;;;;28.65;53.63;99466.03;4898384;29;20032;-76
2023/07/12 02:05:43;;;;;;;8.82;4.45;;;;;;;28.63;53.39;99473.41;4898577;29;20524;-77
2023/07/12 02:08:09;;;;;;;7.00;3.55;;;;;;;28.61;53.24;99464.63;4898319;29;20040;-77
2023/07/12 02:10:34;;;;;;;6.95;3.97;;;;;;;28.62;53.31;99466.31;4897990;29;20029;-77
2023/07/12 02:13:00;;;;;;;7.35;4.30;;;;;;;28.57;53.48;99473.13;4898204;29;20040;-77
2023/07/12 02:15:29;;;;;;;7.00;3.72;;;;;;;28.48;53.38;99472.16;4897734;29;20473;-76
2023/07/12 02:17:54;;;;;;;9.75;4.18;;;;;;;28.49;53.38;99471.16;4898162;29;20457;-77
2023/07/12 02:20:20;;;;;;;7.72;3.97;;;;;;;28.51;53.14;99470.03;4898169;29;20036;-76
2023/07/12 02:22:48;;;;;;;8.48;3.47;;;;;;;28.53;52.87;99469.88;4898032;29;20034;-77
2023/07/12 02:25:14;;;;;;;9.00;3.63;;;;;;;28.53;52.96;99472.56;4898014;29;20028;-77
2023/07/12 02:27:41;;;;;;;5.93;3.78;;;;;;;28.49;52.60;99465.78;4897796;29;20258;-77
2023/07/12 02:30:12;;;;;;;6.97;3.90;;;;;;;28.50;52.95;99467.47;4884260;29;20033;-77
2023/07/12 02:32:38;;;;;;;8.27;3.83;;;;;;;28.50;52.64;99456.75;4879161;29;20036;-76
2023/07/12 02:35:03;;;;;;;7.05;3.17;;;;;;;28.47;52.61;99457.88;4879180;29;20033;-76
2023/07/12 02:37:29;;;;;;;5.47;3.08;;;;;;;28.50;52.55;99452.22;4879087;29;20443;-77
2023/07/12 02:39:55;;;;;;;5.75;2.95;;;;;;;28.51;52.52;99461.09;4878834;29;20029;-77
2023/07/12 02:42:20;;;;;;;7.60;3.35;;;;;;;28.52;52.31;99454.78;4879135;29;20037;-77
2023/07/12 02:44:46;;;;;;;5.40;3.03;;;;;;;28.45;52.50;99459.00;4878520;29;20028;-76
2023/07/12 02:47:11;;;;;;;5.78;2.85;;;;;;;28.44;52.71;99457.31;4878636;29;20049;-77
2023/07/12 02:49:38;;;;;;;5.75;3.25;;;;;;;28.43;52.46;99461.00;4891672;29;20104;-77
2023/07/12 02:52:05;;;;;;;5.97;2.85;;;;;;;28.40;52.58;99452.25;4897397;29;20099;-77
2023/07/12 02:54:31;;;;;;;9.10;3.10;;;;;;;28.36;52.64;99458.03;4897462;29;20484;-77
2023/07/12 02:56:57;;;;;;;7.07;3.00;;;;;;;28.35;52.97;99457.19;4897421;29;20398;-76
2023/07/12 02:59:22;;;;;;;8.55;3.08;;;;;;;28.30;52.82;99462.13;4897034;29;20024;-77
2023/07/12 03:01:48;;;;;;;6.55;3.00;;;;;;;28.27;52.88;99465.09;4897330;29;20041;-77
2023/07/12 03:04:13;;;;;;;7.68;3.15;;;;;;;28.28;53.06;99464.13;4897166;29;20035;-77
2023/07/12 03:06:39;;;;;;;6.30;3.28;;;;;;;28.28;52.67;99464.13;4897156;29;20032;-76
2023/07/12 03:09:06;;;;;;;5.53;3.10;;;;;;;28.37;52.64;99468.63;4897137;29;20052;-76
2023/07/12 03:11:31;;;;;;;6.07;3.08;;;;;;;28.35;52.48;99465.25;4897124;29;20020;-76
2023/07/12 03:13:57;;;;;;;4.97;2.72;;;;;;;28.31;52.42;99466.50;4897041;29;20533;-76
2023/07/12 03:16:22;;;;;;;6.03;2.67;;;;;;;28.37;52.66;99473.16;4897053;29;20699;-76
2023/07/12 03:18:48;;;;;;;6.72;2.65;;;;;;;28.32;52.60;99465.50;4897153;29;20032;-76
2023/07/12 03:21:14;;;;;;;7.40;3.20;;;;;;;28.25;52.35;99472.44;4896966;29;20033;-76
2023/07/12 03:23:39;;;;;;;4.93;2.55;;;;;;;28.27;52.53;99467.78;4897212;29;20028;-77
2023/07/12 03:26:05;;;;;;;6.07;3.20;;;;;;;28.29;52.37;99476.53;4896841;29;20516;-76
2023/07/12 03:28:30;;;;;;;5.13;2.92;;;;;;;28.26;52.19;99471.44;4896624;29;20097;-76
2023/07/12 03:31:06;;;;;;;4.95;2.60;;;;;;;28.28;52.25;99470.31;4897130;29;20033;-77
2023/07/12 03:33:32;;;;;;;4.80;2.50;;;;;;;28.20;52.81;99466.63;4897130;29;20063;-77
2023/07/12 03:35:59;;;;;;;5.95;2.40;;;;;;;28.14;52.46;99479.59;4897070;29;20036;-76
2023/07/12 03:38:25;;;;;;;4.72;2.40;;;;;;;28.17;52.66;99474.97;4897028;29;20033;-77
2023/07/12 03:40:51;;;;;;;4.03;2.10;;;;;;;28.08;52.57;99479.34;4896748;29;20429;-77
2023/07/12 03:43:17;;;;;;;4.10;2.50;;;;;;;28.10;52.58;99480.88;4887146;29;20039;-76
2023/07/12 03:45:43;;;;;;;6.57;2.65;;;;;;;28.09;52.63;99471.13;4878084;29;20057;-76
2023/07/12 03:48:09;;;;;;;5.97;2.63;;;;;;;28.08;52.68;99474.78;4879397;29;20536;-76
2023/07/12 03:50:38;;;;;;;5.75;2.63;;;;;;;28.08;52.76;99479.34;4896628;29;20040;-76
2023/07/12 03:53:03;;;;;;;6.50;2.45;;;;;;;28.00;53.07;99474.66;4897111;29;20395;-77
2023/07/12 03:55:28;;;;;;;5.30;2.58;;;;;;;27.93;52.85;99473.53;4896685;29;20036;-76
2023/07/12 03:57:54;;;;;;;5.88;2.80;;;;;;;27.87;53.13;99473.09;4896313;29;20063;-77
2023/07/12 04:00:19;;;;;;;4.35;2.15;;;;;;;27.81;53.12;99468.28;4896760;29;20163;-77
2023/07/12 04:02:44;;;;;;;6.97;2.70;;;;;;;27.87;53.03;99465.06;4896772;29;20029;-77
2023/07/12 04:05:10;;;;;;;5.93;2.38;;;;;;;27.97;53.24;99466.88;4896702;29;20489;-77
2023/07/12 04:07:36;;;;;;;4.10;2.05;;;;;;;28.04;52.92;99461.81;4896654;29;20084;-77
2023/07/12 04:10:01;;;;;;;3.67;2.13;;;;;;;27.95;52.83;99474.22;4896567;29;20161;-76
2023/07/12 04:12:27;;;;;;;6.72;2.33;;;;;;;27.98;52.84;99471.25;4896606;29;20030;-77
2023/07/12 04:14:52;;;;;;;4.65;2.67;;;;;;;27.99;53.23;99476.47;4897655;29;20032;-77
2023/07/12 04:17:18;;;;;;;4.60;2.35;;;;;;;28.06;52.94;99474.09;4900555;29;20111;-76
2023/07/12 04:19:43;;;;;;;4.07;1.98;;;;;;;27.97;53.28;99478.47;4899150;29;20079;-76
2023/07/12 04:22:08;;;;;;;3.78;2.08;;;;;;;28.01;53.19;99479.03;4888348;29;20449;-76
2023/07/12 04:24:34;;;;;;;6.72;2.38;;;;;;;28.07;52.85;99470.44;4895570;29;20482;-76
2023/07/12 04:26:59;;;;;;;4.85;2.25;;;;;;;28.04;53.25;99468.03;4881028;29;20155;-77
2023/07/12 04:29:27;;;;;;;7.30;2.60;;;;;;;28.03;53.17;99477.06;4884595;29;20116;-76
2023/07/12 04:31:52;;;;;;;4.82;2.20;;;;;;;27.91;53.49;99478.16;4881390;29;20056;-77
2023/07/12 04:34:18;;;;;;;4.32;2.30;;;;;;;27.82;53.48;99480.72;4881302;29;20059;-76
2023/07/12 04:36:43;;;;;;;5.40;2.83;;;;;;;27.88;53.42;99487.34;4889991;29;20028;-76
2023/07/12 04:39:08;;;;;;;6.13;2.42;;;;;;;27.89;53.23;99478.31;4898847;29;20103;-77
2023/07/12 04:41:34;;;;;;;5.43;2.75;;;;;;;27.90;53.71;99481.84;4899637;29;20024;-76
2023/07/12 04:44:01;;;;;;;5.63;2.33;;;;;;;27.78;53.49;99483.81;4899720;29;20036;-77
2023/07/12 04:46:27;;;;;;;4.00;2.25;;;;;;;27.86;53.77;99484.81;4899671;29;20123;-76
2023/07/12 04:48:53;;;;;;;6.40;2.50;;;;;;;27.83;53.40;99481.53;4899527;29;20037;-76
2023/07/12 04:51:18;;;;;;;5.97;2.15;;;;;;;27.86;53.70;99487.50;4899877;29;20021;-76
2023/07/12 04:53:47;;;;;;;5.43;2.50;;;;;;;27.95;53.44;99484.97;4899574;29;20393;-76
2023/07/12 04:56:13;;;;;;;5.60;2.38;;;;;;;27.91;53.60;99478.16;4899091;29;20029;-76
2023/07/12 04:58:39;;;;;;;6.85;2.53;;;;;;;27.78;53.81;99481.97;4899660;29;20027;-77
2023/07/12 05:01:04;;;;;;;8.57;2.22;;;;;;;27.64;54.09;99485.03;4899527;29;20455;-76
2023/07/12 05:03:30;;;;;;;4.20;2.20;;;;;;;27.76;53.82;99481.25;4899461;29;20595;-77
2023/07/12 05:05:59;;;;;;;4.45;2.20;;;;;;;27.79;53.51;99480.13;4899455;29;20044;-76
2023/07/12 05:08:24;;;;;;;5.78;2.25;;;;;;;27.82;53.60;99480.72;4899455;29;20029;-76
2023/07/12 05:10:50;;;;;;;5.32;2.25;;;;;;;27.82;53.40;99472.66;4899088;29;20035;-76
2023/07/12 05:13:15;;;;;;;4.40;2.10;;;;;;;27.81;53.78;99473.66;4899211;29;20024;-76
2023/07/12 05:15:45;;;;;;;4.88;2.35;;;;;;;27.77;53.56;99482.94;4899222;29;20466;-76
2023/07/12 05:18:10;;;;;;;6.55;2.65;;;;;;;27.78;53.59;99483.81;4899022;29;20053;-77
2023/07/12 05:20:36;;;;;;;6.05;2.45;;;;;;;27.77;53.58;99480.28;4897870;29;20024;-76
2023/07/12 05:23:03;;;;;;;4.75;2.50;;;;;;;27.72;53.82;99483.38;4882139;29;20032;-76
2023/07/12 05:25:28;;;;;;;7.57;3.00;;;;;;;27.66;53.69;99478.56;4878937;29;20113;-76
2023/07/12 05:27:54;;;;;;;5.50;2.47;;;;;;;27.59;53.85;99488.13;4880341;29;20704;-76
2023/07/12 05:30:19;;;;;;;6.47;2.72;;;;;;;27.64;53.64;99493.09;4878992;29;20033;-76
2023/07/12 05:32:45;;;;;;;5.13;2.63;;;;;;;27.60;53.60;99492.50;4890719;29;20035;-76
2023/07/12 05:35:10;;;;;;;6.00;2.28;;;;;;;27.58;53.98;99498.00;4898363;29;20125;-77
2023/07/12 05:37:35;;;;;;;6.43;2.33;;;;;;;27.62;53.72;99490.53;4899028;29;20036;-76
2023/07/12 05:40:01;;;;;;;6.28;2.47;;;;;;;27.58;53.56;99487.28;4898525;29;20028;-76
2023/07/12 05:42:26;;;;;;;6.18;2.17;;;;;;;27.55;53.70;99481.31;4898906;29;20545;-76
2023/07/12 05:44:52;;;;;;;5.95;2.03;;;;;;;27.57;53.67;99482.88;4898595;29;20081;-76
2023/07/12 05:47:17;;;;;;;4.13;2.25;;;;;;;27.54;53.89;99477.78;4898491;29;20045;-76
2023/07/12 05:49:42;;;;;;;3.75;2.28;;;;;;;27.49;53.66;99480.00;4897285;29;20024;-76
2023/07/12 05:52:08;;;;;;;6.00;2.47;;;;;;;27.46;54.17;99486.50;4898395;29;20454;-76
2023/07/12 05:54:33;;;;;;;5.75;2.08;;;;;;;27.47;53.92;99488.19;4898297;29;20134;-76
2023/07/12 05:56:59;;;;;;;5.57;2.80;;;;;;;27.45;54.03;99490.16;4898548;29;20029;-75
2023/07/12 05:59:24;;;;;;;5.68;2.70;;;;;;;27.37;54.41;99497.19;4912872;29;20024;-75
2023/07/12 06:01:50;;;;;;;6.07;2.53;;;;;;;27.30;54.45;99500.41;4885369;29;20029;-76
2023/07/12 06:04:15;;;;;;;7.57;2.72;;;;;;;27.26;55.02;99501.63;4879674;29;20025;-76
2023/07/12 06:06:40;;;;;;;6.70;2.65;;;;;;;27.28;54.87;99502.38;4879462;29;20033;-77
2023/07/12 06:09:06;;;;;;;6.32;2.85;;;;;;;27.40;54.43;99503.13;4879184;29;20025;-76
2023/07/12 06:11:32;;;;;;;5.18;2.50;;;;;;;27.28;54.66;99504.19;4890068;29;20035;-78
2023/07/12 06:13:57;;;;;;;5.30;3.05;;;;;;;27.27;55.16;99508.72;4898376;29;20507;-77
2023/07/12 06:16:23;;;;;;;7.13;3.05;;;;;;;27.23;55.21;99512.63;4898352;29;20033;-76
2023/07/12 06:18:48;;;;;;;6.57;2.85;;;;;;;27.32;54.67;99501.09;4896823;29;20032;-77
2023/07/12 06:21:13;;;;;;;4.70;2.45;;;;;;;27.28;54.93;99504.19;4889628;29;20025;-77
2023/07/12 06:23:39;;;;;;;4.00;2.10;;;;;;;27.30;55.35;99496.84;4879144;29;20052;-76
2023/07/12 06:26:05;;;;;;;5.85;2.70;;;;;;;27.34;54.94;99498.28;4879344;29;20490;-76
2023/07/12 06:28:31;;;;;;;6.65;3.03;;;;;;;27.31;55.45;99499.41;4879313;29;20132;-76
2023/07/12 06:30:56;;;;;;;4.82;2.80;;;;;;;27.42;54.77;99489.59;4885089;29;20115;-75
2023/07/12 06:33:22;;;;;;;4.57;2.78;;;;;;;27.46;54.81;99482.97;4897770;29;20085;-76
2023/07/12 06:35:47;;;;;;;6.15;3.22;;;;;;;27.54;55.00;99488.50;4897750;29;20056;-76
2023/07/12 06:38:13;;;;;;;6.45;3.10;;;;;;;27.59;54.73;99493.47;4895851;29;20031;-76
2023/07/12 06:40:39;;;;;;;6.75;3.05;;;;;;;27.55;55.14;99502.75;4894234;29;20601;-76
2023/07/12 06:43:04;;;;;;;6.28;2.95;;;;;;;27.46;55.32;99499.06;4879000;29;20063;-76
2023/07/12 06:45:30;;;;;;;5.72;2.38;;;;;;;27.47;55.03;99498.06;4878656;29;20045;-77
2023/07/12 06:47:55;;;;;;;5.05;2.33;;;;;;;27.50;54.80;99492.44;4878796;29;20112;-76
2023/07/12 06:50:21;;;;;;;6.82;3.35;;;;;;;27.43;55.00;99485.91;4896927;29;20067;-76
2023/07/12 06:52:47;;;;;;;6.15;2.60;;;;;;;27.37;54.78;99487.31;4897195;29;20488;-77
2023/07/12 06:55:12;;;;;;;5.93;2.63;;;;;;;27.27;54.94;99495.31;4897485;29;20442;-76
2023/07/12 06:57:38;;;;;;;4.60;2.47;;;;;;;27.26;55.02;99501.63;4897543;29;20119;-76
2023/07/12 07:00:06;;;;;;;6.13;2.85;;;;;;;27.35;54.61;99508.03;4897303;29;20598;-76
2023/07/12 07:02:32;;;;;;;4.97;2.00;;;;;;;27.39;54.86;99511.28;4879750;29;20032;-76
2023/07/12 07:04:57;;;;;;;4.82;2.33;;;;;;;27.43;54.93;99496.63;4878593;29;20033;-76
2023/07/12 07:07:23;;;;;;;5.57;2.20;;;;;;;27.37;54.74;99498.03;4880656;29;20040;-76
2023/07/12 07:09:48;;;;;;;6.75;2.47;;;;;;;27.40;54.70;99508.47;4878554;29;20433;-77
2023/07/12 07:12:15;;;;;;;4.82;2.50;;;;;;;27.43;54.76;99512.72;4893629;29;20500;-76
2023/07/12 07:14:41;;;;;;;5.25;2.60;;;;;;;27.35;54.27;99508.03;4896057;29;20064;-76
2023/07/12 07:17:08;;;;;;;6.03;2.42;;;;;;;27.33;54.13;99505.50;4897224;29;20520;-77
2023/07/12 07:19:33;;;;;;;3.63;1.90;;;;;;;27.31;54.32;99509.28;4897287;29;20052;-78
2023/07/12 07:21:59;;;;;;;5.72;2.45;;;;;;;27.20;54.23;99508.41;4883920;29;20055;-76
2023/07/12 07:24:24;;;;;;;6.00;2.72;;;;;;;27.18;54.57;99510.38;4877119;29;20393;-77
2023/07/12 07:26:49;;;;;;;6.53;2.63;;;;;;;27.16;54.11;99511.47;4878435;29;20040;-77
2023/07/12 07:29:15;;;;;;;8.38;2.90;;;;;;;27.18;54.26;99509.50;4880724;29;20028;-77
2023/07/12 07:31:40;;;;;;;6.35;2.88;;;;;;;27.17;54.11;99515.84;4896934;29;20396;-76
2023/07/12 07:34:06;;;;;;;6.65;2.80;;;;;;;27.17;53.99;99513.16;4896914;29;20025;-76
2023/07/12 07:36:31;;;;;;;5.32;2.53;;;;;;;27.15;54.07;99520.47;4896651;29;20036;-76
2023/07/12 07:38:57;;;;;;;5.85;2.80;;;;;;;27.19;54.18;99516.56;4897022;29;20028;-76
2023/07/12 07:41:22;;;;;;;5.95;2.55;;;;;;;27.15;54.05;99525.81;4888724;29;20112;-77
2023/07/12 07:43:47;;;;;;;5.45;2.50;;;;;;;27.13;54.05;99527.81;4883184;29;20485;-77
2023/07/12 07:46:14;;;;;;;6.57;2.63;;;;;;;27.07;54.00;99524.66;4896600;29;20044;-76
2023/07/12 07:48:40;;;;;;;7.57;2.65;;;;;;;27.08;54.61;99531.72;4896756;29;20039;-76
2023/07/12 07:51:14;;;;;;;8.05;2.92;;;;;;;27.07;54.26;99527.34;4899333;29;20495;-76
2023/07/12 07:53:40;;;;;;;6.07;2.65;;;;;;;27.09;54.43;99527.22;4900733;29;20029;-76
2023/07/12 07:56:05;;;;;;;6.93;2.55;;;;;;;27.08;54.49;99518.31;4900732;29;20437;-77
2023/07/12 07:58:31;;;;;;;5.28;2.97;;;;;;;27.19;54.13;99517.41;4900433;29;20035;-77
2023/07/12 08:00:56;;;;;;;6.40;2.53;;;;;;;27.18;54.43;99520.22;4897523;29;20033;-77
2023/07/12 08:03:22;;;;;;;5.10;2.60;;;;;;;27.26;54.24;99517.72;4900206;29;20497;-76
2023/07/12 08:05:47;;;;;;;6.35;2.58;;;;;;;27.29;54.24;99521.97;4900613;29;20070;-76
2023/07/12 08:08:13;;;;;;;6.13;2.90;;;;;;;27.21;54.16;99525.28;4900170;29;20036;-76
2023/07/12 08:10:38;;;;;;;7.72;2.88;;;;;;;27.22;54.20;99524.34;4898226;29;20028;-76
2023/07/12 08:13:04;;;;;;;8.05;2.53;;;;;;;27.14;54.17;99524.13;4881530;29;20056;-76
2023/07/12 08:15:30;;;;;;;6.70;2.70;;;;;;;27.14;54.46;99530.34;4891001;29;20047;-76
2023/07/12 08:17:55;;;;;;;6.95;2.55;;;;;;;27.17;54.44;99523.88;4892108;29;20438;-76
2023/07/12 08:20:23;;;;;;;7.88;2.60;;;;;;;27.24;54.19;99524.19;4890225;29;20028;-77
2023/07/12 08:22:48;;;;;;;7.85;3.03;;;;;;;27.20;54.18;99521.78;4894647;29;20208;-76
2023/07/12 08:25:14;;;;;;;6.88;2.60;;;;;;;27.25;53.69;99521.38;4900103;29;20489;-76
2023/07/12 08:27:39;;;;;;;6.72;2.50;;;;;;;27.33;53.65;99523.41;4900062;29;20024;-77
2023/07/12 08:30:05;;;;;;;7.47;2.88;;;;;;;27.36;53.70;99512.44;4900006;29;20029;-76
2023/07/12 08:32:34;;;;;;;7.72;2.80;;;;;;;27.30;53.73;99519.16;4883088;29;20124;-76
2023/07/12 08:35:00;;;;;;;6.50;3.13;;;;;;;27.33;53.54;99518.03;4881155;29;20567;-76
2023/07/12 08:37:27;;;;;;;5.10;2.75;;;;;;;27.23;53.88;99523.34;4879797;29;20067;-76
2023/07/12 08:39:53;;;;;;;6.88;2.67;;;;;;;27.33;53.90;99531.44;4881388;29;20033;-78
2023/07/12 08:42:40;;;;;;;6.32;2.70;;;;;;;27.40;53.62;99526.41;4895715;29;20025;-77
2023/07/12 08:45:28;;;;;;;5.60;2.60;;;;;;;27.40;53.68;99531.75;4899666;29;20029;-77
2023/07/12 08:48:00;;;;;;;5.18;3.03;;;;;;;27.41;53.81;99533.44;4899478;29;20396;-77
2023/07/12 08:50:29;;;;;;;7.32;3.17;;;;;;;27.42;53.36;99543.19;4881079;29;20434;-77
2023/07/12 08:52:55;;;;;;;6.20;3.10;;;;;;;27.41;53.89;99544.16;4881203;29;20553;-77
2023/07/12 08:55:22;;;;;;;8.80;3.35;;;;;;;27.38;53.53;99539.91;4884772;29;20165;-76
2023/07/12 08:58:02;;;;;;;7.82;3.80;;;;;;;27.42;53.64;99544.03;4895277;29;20044;-75
2023/07/12 09:00:32;;;;;;;7.43;3.17;;;;;;;27.47;53.58;99544.44;4898772;29;20025;-77
2023/07/12 09:02:58;;;;;;;7.32;2.80;;;;;;;27.48;53.37;99537.28;4895632;29;20052;-76
2023/07/12 09:05:24;;;;;;;9.43;3.20;;;;;;;27.41;53.49;99526.25;4896237;29;20028;-75
2023/07/12 09:07:55;;;;;;;6.55;3.10;;;;;;;27.44;53.69;99525.13;4897742;29;20040;-76
2023/07/12 09:10:29;;;;;;;5.28;2.95;;;;;;;27.45;53.29;99513.44;4895193;29;20051;-76
2023/07/12 09:12:58;;;;;;;7.85;3.15;;;;;;;27.43;53.04;99520.75;4899155;29;20503;-76
2023/07/12 09:15:33;;;;;;;8.45;3.15;;;;;;;27.46;53.32;99524.00;4896206;29;20031;-76
2023/07/12 09:17:59;;;;;;;7.47;3.20;;;;;;;27.39;53.06;99527.34;4898646;29;20036;-76
2023/07/12 09:20:30;;;;;;;6.50;2.95;;;;;;;27.31;53.33;99520.00;4898448;29;20029;-76
2023/07/12 09:22:56;;;;;;;7.38;3.05;;;;;;;27.34;53.09;99525.94;4880171;29;20394;-76
2023/07/12 09:25:33;;;;;;;6.63;2.90;;;;;;;27.29;53.22;99517.47;4879964;29;20037;-76
2023/07/12 09:27:58;;;;;;;5.93;2.92;;;;;;;27.28;53.47;99521.13;4879489;29;20052;-76
2023/07/12 09:30:27;;;;;;;5.47;2.67;;;;;;;27.23;53.41;99534.06;4889814;29;20165;-76
2023/07/12 09:32:54;;;;;;;6.32;3.15;;;;;;;27.21;53.76;99531.50;4899043;29;20029;-76
2023/07/12 09:35:39;;;;;;;7.28;2.92;;;;;;;27.21;53.54;99519.94;4894698;29;20105;-75
2023/07/12 09:38:10;;;;;;;6.60;3.10;;;;;;;27.11;53.42;99519.06;4892874;29;20029;-76
2023/07/12 09:40:41;;;;;;;6.22;3.17;;;;;;;27.08;53.50;99526.34;4895300;29;20029;-76
2023/07/12 09:43:27;;;;;;;7.25;3.05;;;;;;;27.06;54.06;99528.34;4898426;29;20032;-76
2023/07/12 09:46:10;;;;;;;5.55;2.67;;;;;;;27.11;53.91;99535.13;4894591;29;20041;-76
2023/07/12 09:48:57;;;;;;;5.63;2.90;;;;;;;27.07;53.79;99540.72;4897653;29;20068;-76
2023/07/12 09:51:58;;;;;;;5.65;3.03;;;;;;;27.00;54.40;99528.88;4896587;29;20036;-76
2023/07/12 09:54:42;;;;;;;5.80;3.15;;;;;;;27.07;54.28;99518.47;4858265;29;20120;-76
2023/07/12 09:57:46;;;;;;;5.72;3.05;;;;;;;27.11;54.28;99516.38;4837685;29;20136;-76
2023/07/12 10:00:20;;;;;;;8.68;3.45;;;;;;;27.14;53.85;99514.28;4821904;29;20038;-76
2023/07/12 10:03:04;;;;;;;7.68;2.83;;;;;;;27.15;54.07;99507.09;4822241;29;20118;-76
2023/07/12 10:05:30;;;;;;;6.55;3.00;;;;;;;27.17;53.91;99518.53;4822098;29;20574;-77
2023/07/12 10:08:04;;;;;;;7.07;2.92;;;;;;;27.19;53.63;99516.56;4821968;29;20038;-77
2023/07/12 10:10:55;;;;;;;5.43;2.60;;;;;;;27.21;53.13;99514.59;4822183;29;20034;-77
2023/07/12 10:13:44;;;;;;;7.13;3.00;;;;;;;27.21;53.38;99514.59;4818496;29;20031;-76
2023/07/12 10:16:17;;;;;;;5.10;3.00;;;;;;;27.19;52.58;99527.28;4821947;29;20042;-76
2023/07/12 10:18:44;;;;;;;5.40;2.83;;;;;;;27.14;52.95;99524.13;4822091;29;20205;-76
2023/07/12 10:21:16;;;;;;;7.72;2.90;;;;;;;27.13;52.84;99511.72;4821971;29;20519;-76
2023/07/12 10:23:54;;;;;;;5.70;2.60;;;;;;;27.15;52.71;99505.25;4822017;29;20125;-76
2023/07/12 10:26:20;;;;;;;6.65;2.70;;;;;;;27.18;52.40;99501.47;4821937;29;20034;-76
2023/07/12 10:29:07;;;;;;;6.25;2.80;;;;;;;27.17;52.49;99497.09;4845408;29;20060;-75
2023/07/12 10:31:55;;;;;;;5.68;2.90;;;;;;;27.20;52.35;99491.47;4887602;29;20041;-76
2023/07/12 10:34:43;;;;;;;5.47;2.63;;;;;;;27.16;52.52;99487.38;4897624;29;20559;-76
2023/07/12 10:37:43;;;;;;;5.75;2.80;;;;;;;27.18;52.50;99499.66;4895969;29;20413;-77
2023/07/12 10:40:17;;;;;;;6.07;2.97;;;;;;;27.16;52.69;99508.81;4858168;29;20121;-76
2023/07/12 10:42:53;;;;;;;7.72;3.30;;;;;;;27.12;52.49;99504.69;4858051;29;20121;-76
2023/07/12 10:45:24;;;;;;;7.07;2.95;;;;;;;27.13;52.18;99511.72;4858019;29;20061;-76
2023/07/12 10:47:53;;;;;;;5.28;2.70;;;;;;;27.09;52.30;99505.78;4858206;29;20034;-76
2023/07/12 10:50:27;;;;;;;5.10;2.45;;;;;;;27.10;52.47;99506.66;4858092;29;20216;-76
2023/07/12 10:53:26;;;;;;;5.50;2.63;;;;;;;27.11;52.32;99505.66;4858138;29;20176;-76
2023/07/12 10:56:10;;;;;;;6.30;2.90;;;;;;;27.07;52.26;99511.28;4857383;29;20097;-76
2023/07/12 10:58:59;;;;;;;6.90;2.58;;;;;;;27.12;52.27;99510.88;4857474;29;20078;-76
2023/07/12 11:01:40;;;;;;;6.07;2.70;;;;;;;27.07;52.33;99513.13;4858005;29;20097;-76
2023/07/12 11:04:11;;;;;;;10.05;2.83;;;;;;;27.05;52.10;99507.03;4857902;29;20037;-76
2023/07/12 11:06:53;;;;;;;5.40;2.78;;;;;;;27.05;52.15;99515.94;4842368;29;20061;-76
2023/07/12 11:09:19;;;;;;;6.13;3.10;;;;;;;27.06;52.02;99522.13;4857805;29;20037;-76
2023/07/12 11:11:50;;;;;;;5.88;2.63;;;;;;;27.05;52.37;99509.72;4857620;29;20090;-76
2023/07/12 11:14:36;;;;;;;6.22;3.15;;;;;;;27.06;51.94;99511.41;4857814;29;20405;-76
2023/07/12 11:17:07;;;;;;;6.40;2.90;;;;;;;27.13;51.77;99509.06;4868341;29;20040;-77
2023/07/12 11:19:45;;;;;;;6.88;2.90;;;;;;;27.13;51.97;99512.59;4897300;29;20393;-76
2023/07/12 11:22:18;;;;;;;6.57;2.60;;;;;;;27.18;51.68;99517.53;4896965;29;20032;-76
2023/07/12 11:25:06;;;;;;;5.20;2.35;;;;;;;27.19;51.73;99511.19;4878407;29;20089;-76
2023/07/12 11:27:39;;;;;;;5.50;2.40;;;;;;;27.16;51.09;99496.25;4878177;29;20528;-76
2023/07/12 11:30:28;;;;;;;5.28;2.28;;;;;;;27.17;51.40;99502.47;4887356;29;20064;-76
2023/07/12 11:33:17;;;;;;;5.03;2.53;;;;;;;27.14;51.10;99492.00;4885331;29;20111;-76
2023/07/12 11:35:47;;;;;;;4.60;2.38;;;;;;;27.16;50.77;99495.41;4881662;29;20035;-78
2023/07/12 11:38:33;;;;;;;5.85;2.85;;;;;;;27.17;50.83;99487.22;4896857;29;20040;-78
2023/07/12 11:41:05;;;;;;;6.97;2.17;;;;;;;27.15;50.97;99496.38;4885381;29;20048;-78